Time;durP1;ratioP1;P1;durP2;ratioP2;P2;SDS_P1;SDS_P2;PMS_P1;PMS_P2;Temp;Humidity;BMP_temperature;BMP_pressure;BME280_temperature;BME280_humidity;BME280_pressure;Samples;Min_cycle;Max_cycle;Signal;HPM_P1;HPM_P2
2024/02/24 00:00:35;;;;;;;7.60;3.63;;;2.50;99.90;;;;;;6070036;23;20071;-79
2024/02/24 00:03:23;;;;;;;4.75;3.28;;;2.50;99.90;;;;;;6054547;23;20067;-80
2024/02/24 00:06:11;;;;;;;5.90;3.45;;;2.70;99.90;;;;;;6058705;23;20026;-78
2024/02/24 00:08:59;;;;;;;9.00;4.40;;;2.70;99.90;;;;;;6075313;23;20031;-80
2024/02/24 00:11:51;;;;;;;12.55;4.93;;;2.80;99.90;;;;;;6077292;23;20397;-80
2024/02/24 00:14:39;;;;;;;11.10;3.65;;;2.80;99.90;;;;;;6046524;23;20046;-82
2024/02/24 00:17:28;;;;;;;6.28;3.83;;;2.80;99.90;;;;;;6063225;23;20034;-82
2024/02/24 00:20:17;;;;;;;7.13;3.30;;;2.80;99.90;;;;;;6063183;23;20045;-80
2024/02/24 00:23:04;;;;;;;5.60;3.08;;;2.80;99.90;;;;;;6060549;23;20027;-82
2024/02/24 00:25:52;;;;;;;11.38;3.50;;;2.90;99.90;;;;;;6062682;23;20106;-83
2024/02/24 00:28:39;;;;;;;5.63;2.95;;;2.90;99.90;;;;;;6062955;23;20053;-81
2024/02/24 00:31:26;;;;;;;4.60;2.63;;;3.00;96.30;;;;;;6042661;23;20079;-80
2024/02/24 00:34:14;;;;;;;6.40;2.90;;;3.00;74.10;;;;;;6078195;23;20080;-79
2024/02/24 00:37:02;;;;;;;7.65;3.00;;;3.00;54.60;;;;;;6058829;23;20827;-80
2024/02/24 00:39:51;;;;;;;6.22;2.72;;;2.90;38.40;;;;;;6072283;23;20034;-77
2024/02/24 00:42:40;;;;;;;4.78;2.58;;;2.90;23.80;;;;;;6078974;23;20015;-76
2024/02/24 00:45:28;;;;;;;4.68;2.75;;;2.90;13.20;;;;;;6082790;23;20363;-79
2024/02/24 00:48:17;;;;;;;6.93;3.13;;;2.80;3.50;;;;;;6072423;23;20094;-81
2024/02/24 00:51:05;;;;;;;4.80;2.50;;;2.80;1.00;;;;;;6040031;23;20106;-81
2024/02/24 00:53:53;;;;;;;5.57;2.55;;;2.80;1.00;;;;;;6062986;23;20033;-82
2024/02/24 00:56:46;;;;;;;4.18;2.90;;;2.70;1.00;;;;;;6063789;23;20213;-83
2024/02/24 00:59:34;;;;;;;7.05;3.38;;;2.70;1.00;;;;;;6041452;23;20485;-79
2024/02/24 01:02:22;;;;;;;6.75;2.83;;;2.70;1.00;;;;;;6062134;23;20477;-81
2024/02/24 01:05:09;;;;;;;6.35;2.85;;;2.70;1.00;;;;;;6060827;23;20505;-78
2024/02/24 01:07:58;;;;;;;6.35;2.63;;;2.60;1.00;;;;;;6037712;23;20030;-82
2024/02/24 01:10:46;;;;;;;6.50;3.00;;;2.60;1.00;;;;;;6059927;23;20488;-81
2024/02/24 01:13:34;;;;;;;4.38;3.25;;;2.60;8.00;;;;;;6043243;23;20057;-79
2024/02/24 01:16:22;;;;;;;5.85;3.10;;;2.60;8.50;;;;;;6066039;23;20058;-78
2024/02/24 01:19:10;;;;;;;6.43;2.92;;;2.60;16.70;;;;;;6064042;23;20110;-82
2024/02/24 01:21:58;;;;;;;4.25;3.17;;;2.70;16.30;;;;;;6065031;23;20034;-82
2024/02/24 01:24:49;;;;;;;7.57;2.85;;;2.60;19.00;;;;;;6079800;23;20062;-80
2024/02/24 01:27:36;;;;;;;5.28;2.90;;;2.70;25.90;;;;;;6063333;23;20019;-77
2024/02/24 01:30:26;;;;;;;6.85;3.10;;;2.70;27.80;;;;;;6073087;23;20171;-83
2024/02/24 01:33:15;;;;;;;6.35;2.75;;;2.80;31.70;;;;;;6058155;23;20059;-81
2024/02/24 01:36:03;;;;;;;5.88;3.10;;;2.80;39.70;;;;;;6070000;23;20036;-79
2024/02/24 01:38:50;;;;;;;6.28;2.97;;;2.80;39.70;;;;;;6039441;23;20091;-80
2024/02/24 01:41:38;;;;;;;6.78;2.95;;;2.90;50.80;;;;;;6061169;23;20402;-80
2024/02/24 01:44:27;;;;;;;4.30;2.67;;;2.90;51.80;;;;;;6041048;23;20026;-78
2024/02/24 01:47:16;;;;;;;6.68;2.70;;;3.00;54.40;;;;;;6059876;23;20030;-81
2024/02/24 01:50:10;;;;;;;6.10;2.58;;;3.00;52.40;;;;;;6039943;23;20050;-79
2024/02/24 01:52:57;;;;;;;4.15;2.45;;;3.10;52.50;;;;;;6061338;23;20034;-82
2024/02/24 01:55:45;;;;;;;5.28;2.67;;;3.20;53.40;;;;;;6038650;23;20026;-80
2024/02/24 01:58:37;;;;;;;4.93;2.70;;;3.10;99.90;;;;;;6059993;23;20397;-80
2024/02/24 02:01:26;;;;;;;4.35;2.42;;;3.00;99.90;;;;;;6041326;23;20446;-84
2024/02/24 02:04:13;;;;;;;6.22;2.60;;;2.80;99.90;;;;;;6062317;23;20037;-83
2024/02/24 02:07:02;;;;;;;4.03;2.42;;;2.70;99.90;;;;;;6039758;23;20053;-80
2024/02/24 02:09:54;;;;;;;5.32;2.60;;;2.70;99.90;;;;;;6059993;23;20046;-81
2024/02/24 02:12:43;;;;;;;2.97;2.30;;;2.60;99.90;;;;;;6051206;23;20026;-81
2024/02/24 02:15:31;;;;;;;5.90;2.38;;;2.60;1.00;;;;;;6076167;23;20042;-81
2024/02/24 02:18:20;;;;;;;3.10;2.20;;;2.50;1.00;;;;;;6055090;23;20090;-79
2024/02/24 02:21:08;;;;;;;6.30;2.58;;;2.50;1.00;;;;;;6072286;23;20529;-81
2024/02/24 02:23:56;;;;;;;8.45;2.97;;;2.40;1.00;;;;;;6044877;23;20053;-82
2024/02/24 02:26:43;;;;;;;3.30;1.95;;;2.40;1.00;;;;;;6042248;23;20023;-82
2024/02/24 02:29:34;;;;;;;12.10;2.47;;;2.50;38.00;;;;;;6060281;23;20027;-81
2024/02/24 02:32:24;;;;;;;;;;;2.50;88.20;;;;;;6041704;23;20187;-80
2024/02/24 02:35:12;;;;;;;7.35;2.88;;;2.50;99.90;;;;;;6059197;23;19949;-81
2024/02/24 02:38:09;;;;;;;6.45;2.20;;;2.50;99.90;;;;;;6058676;23;20030;-80
2024/02/24 02:40:57;;;;;;;4.47;2.10;;;2.50;99.90;;;;;;6020496;23;20031;-82
2024/02/24 02:43:45;;;;;;;4.57;2.50;;;2.40;99.90;;;;;;6061023;23;20334;-82
2024/02/24 02:46:32;;;;;;;3.38;2.22;;;2.40;99.90;;;;;;6059317;23;20366;-78
2024/02/24 02:49:24;;;;;;;5.32;2.50;;;2.40;99.90;;;;;;6062307;23;20023;-81
2024/02/24 02:52:11;;;;;;;4.93;2.58;;;2.40;99.90;;;;;;6062206;23;20141;-83
2024/02/24 02:54:59;;;;;;;4.72;2.28;;;2.40;99.90;;;;;;6056863;23;20704;-82
2024/02/24 02:57:48;;;;;;;5.50;2.35;;;2.50;99.90;;;;;;6076678;23;20054;-80
2024/02/24 03:00:36;;;;;;;2.60;2.22;;;2.50;99.90;;;;;;6070975;23;20548;-81
2024/02/24 03:03:24;;;;;;;4.05;2.10;;;2.50;99.90;;;;;;6069566;23;20026;-80
2024/02/24 03:06:12;;;;;;;2.67;1.88;;;2.40;99.90;;;;;;6046739;23;20042;-79
2024/02/24 03:09:03;;;;;;;3.95;2.10;;;2.30;99.90;;;;;;6065072;23;20023;-82
2024/02/24 03:11:50;;;;;;;1.73;1.60;;;2.30;1.00;;;;;;6074412;23;20343;-84
2024/02/24 03:14:37;;;;;;;3.10;1.95;;;2.20;1.00;;;;;;6061448;23;20030;-79
2024/02/24 03:17:26;;;;;;;4.00;2.13;;;2.10;1.00;;;;;;6063574;23;20040;-81
2024/02/24 03:20:13;;;;;;;2.70;1.77;;;2.10;1.00;;;;;;6061574;23;20027;-82
2024/02/24 03:23:04;;;;;;;4.22;1.90;;;1.90;1.00;;;;;;6063456;23;20135;-81
2024/02/24 03:25:51;;;;;;;3.38;1.85;;;1.80;1.00;;;;;;6043216;23;20041;-79
2024/02/24 03:28:40;;;;;;;3.05;1.90;;;1.80;11.40;;;;;;6041965;23;20019;-83
2024/02/24 03:31:29;;;;;;;3.45;1.70;;;1.80;48.60;;;;;;6043936;23;20117;-80
2024/02/24 03:34:18;;;;;;;3.70;1.90;;;1.70;52.80;;;;;;6059838;23;20051;-82
2024/02/24 03:37:06;;;;;;;3.95;2.00;;;1.50;97.60;;;;;;6057814;23;20031;-82
2024/02/24 03:39:53;;;;;;;3.58;2.30;;;1.40;99.90;;;;;;6059288;23;20031;-83
2024/02/24 03:42:41;;;;;;;4.50;2.33;;;1.30;99.90;;;;;;6062240;23;20031;-81
2024/02/24 03:45:31;;;;;;;4.32;2.03;;;1.10;99.90;;;;;;6050485;23;20102;-82
2024/02/24 03:48:19;;;;;;;2.90;2.22;;;1.10;99.90;;;;;;6063400;23;20521;-82
2024/02/24 03:51:06;;;;;;;5.68;2.55;;;1.10;1.00;;;;;;6059605;23;20026;-81
2024/02/24 03:53:54;;;;;;;2.50;2.28;;;0.90;1.00;;;;;;6070904;23;20030;-83
2024/02/24 03:56:42;;;;;;;4.05;2.30;;;0.80;1.00;;;;;;6063643;23;20027;-77
2024/02/24 03:59:31;;;;;;;6.65;2.63;;;0.80;94.00;;;;;;6063402;23;20030;-80
2024/02/24 04:02:18;;;;;;;5.65;3.10;;;0.80;99.90;;;;;;6064807;23;20033;-83
2024/02/24 04:05:06;;;;;;;6.65;3.75;;;0.80;1.00;;;;;;6065601;23;20022;-80
2024/02/24 04:07:54;;;;;;;4.00;2.50;;;0.80;99.90;;;;;;6064126;23;20454;-81
2024/02/24 04:10:44;;;;;;;7.57;2.40;;;0.80;1.00;;;;;;6049931;23;20027;-78
2024/02/24 04:13:32;;;;;;;2.55;1.95;;;0.80;99.90;;;;;;6079586;23;20047;-79
2024/02/24 04:16:20;;;;;;;4.05;2.03;;;0.90;1.00;;;;;;6048121;23;20086;-81
2024/02/24 04:19:08;;;;;;;3.78;2.50;;;1.20;99.90;;;;;;6043156;23;20031;-80
2024/02/24 04:21:57;;;;;;;3.17;2.47;;;1.30;99.90;;;;;;6049823;23;20432;-81
2024/02/24 04:24:44;;;;;;;3.78;2.08;;;1.50;99.90;;;;;;6061018;23;20030;-81
2024/02/24 04:27:32;;;;;;;3.72;2.50;;;1.60;1.00;;;;;;6068612;23;20050;-80
2024/02/24 04:30:20;;;;;;;9.88;3.22;;;1.70;99.90;;;;;;6053629;23;20059;-81
2024/02/24 04:33:08;;;;;;;3.83;2.47;;;1.70;1.00;;;;;;6062614;23;20422;-80
2024/02/24 04:35:57;;;;;;;8.23;2.72;;;1.80;99.90;;;;;;6071984;23;20062;-82
2024/02/24 04:38:51;;;;;;;4.57;2.60;;;1.90;99.90;;;;;;6041886;23;20030;-81
2024/02/24 04:41:40;;;;;;;5.28;2.40;;;1.90;1.00;;;;;;6061197;23;20422;-80
2024/02/24 04:44:27;;;;;;;3.55;2.60;;;2.00;1.00;;;;;;6040533;23;20022;-81
2024/02/24 04:47:16;;;;;;;4.10;2.67;;;2.00;99.90;;;;;;6041241;23;20027;-81
2024/02/24 04:50:04;;;;;;;3.25;2.45;;;2.00;99.90;;;;;;6062749;23;20148;-83
2024/02/24 04:52:52;;;;;;;6.68;2.15;;;2.00;99.90;;;;;;6041407;23;20031;-81
2024/02/24 04:55:41;;;;;;;5.93;2.90;;;2.00;99.90;;;;;;6059801;23;20042;-80
2024/02/24 04:58:28;;;;;;;4.35;2.38;;;2.00;99.90;;;;;;6060006;23;20059;-79
2024/02/24 05:01:17;;;;;;;3.72;2.53;;;2.00;91.40;;;;;;6046709;23;20054;-81
2024/02/24 05:04:04;;;;;;;4.18;2.00;;;2.00;51.90;;;;;;6064197;23;20030;-78
2024/02/24 05:06:52;;;;;;;4.40;1.90;;;2.00;33.90;;;;;;6074104;23;20090;-76
2024/02/24 05:09:40;;;;;;;2.58;1.92;;;2.10;40.40;;;;;;6038934;23;20492;-82
2024/02/24 05:12:28;;;;;;;4.13;2.15;;;2.10;1.00;;;;;;6073418;23;20039;-82
2024/02/24 05:15:17;;;;;;;5.38;2.00;;;2.20;1.00;;;;;;6045080;23;20043;-81
2024/02/24 05:18:09;;;;;;;2.33;2.00;;;2.20;1.00;;;;;;6040272;23;20031;-80
2024/02/24 05:20:58;;;;;;;3.30;2.50;;;2.20;1.00;;;;;;6065257;23;20109;-80
2024/02/24 05:23:45;;;;;;;3.25;2.38;;;2.10;99.90;;;;;;6058713;23;20094;-81
2024/02/24 05:26:33;;;;;;;3.83;1.85;;;2.10;99.90;;;;;;6059087;23;20031;-82
2024/02/24 05:29:20;;;;;;;3.38;1.98;;;2.10;99.90;;;;;;6060893;23;20050;-82
2024/02/24 05:32:09;;;;;;;3.95;2.47;;;2.00;99.90;;;;;;6040176;23;20470;-81
2024/02/24 05:34:57;;;;;;;3.88;2.45;;;2.10;99.90;;;;;;6062525;23;20051;-80
2024/02/24 05:37:46;;;;;;;8.90;2.92;;;2.20;99.90;;;;;;6042634;23;20101;-82
2024/02/24 05:40:34;;;;;;;6.97;2.70;;;2.30;99.90;;;;;;6062805;23;20037;-81
2024/02/24 05:43:23;;;;;;;7.50;2.45;;;2.20;99.90;;;;;;6042644;23;20030;-79
2024/02/24 05:46:16;;;;;;;3.15;2.38;;;2.30;99.90;;;;;;6070954;23;20053;-79
2024/02/24 05:49:04;;;;;;;2.72;2.47;;;2.40;81.40;;;;;;6083732;23;20446;-80
2024/02/24 05:51:53;;;;;;;6.80;2.67;;;2.40;20.30;;;;;;6060379;23;20111;-80
2024/02/24 05:54:41;;;;;;;6.53;2.45;;;2.50;1.00;;;;;;6070961;23;20027;-79
2024/02/24 05:57:29;;;;;;;4.88;2.50;;;2.60;1.00;;;;;;6048346;23;20054;-79
2024/02/24 06:00:18;;;;;;;5.13;3.00;;;2.60;1.00;;;;;;6041117;23;20038;-80
2024/02/24 06:03:11;;;;;;;4.65;2.80;;;2.60;1.00;;;;;;6046050;23;20348;-78
2024/02/24 06:06:10;;;;;;;4.72;2.47;;;2.60;1.00;;;;;;6048919;23;20019;-77
2024/02/24 06:08:58;;;;;;;5.03;2.55;;;2.60;99.90;;;;;;6060046;23;20063;-78
2024/02/24 06:11:46;;;;;;;3.70;2.75;;;2.60;99.90;;;;;;6056932;23;20102;-78
2024/02/24 06:14:35;;;;;;;4.57;2.60;;;2.60;99.90;;;;;;6055746;23;20033;-77
2024/02/24 06:17:22;;;;;;;5.35;2.58;;;2.70;99.90;;;;;;6059305;23;20049;-80
2024/02/24 06:20:11;;;;;;;9.52;4.70;;;2.70;99.90;;;;;;6037895;23;20375;-79
2024/02/24 06:22:59;;;;;;;11.02;3.80;;;2.80;99.90;;;;;;6058945;23;20027;-77
2024/02/24 06:25:46;;;;;;;6.75;3.20;;;2.80;99.90;;;;;;6059552;23;20026;-80
2024/02/24 06:28:35;;;;;;;6.45;2.40;;;2.80;99.90;;;;;;6057575;23;20027;-79
2024/02/24 06:31:22;;;;;;;4.95;2.50;;;2.80;99.90;;;;;;6054607;23;20031;-78
2024/02/24 06:34:12;;;;;;;6.32;3.55;;;2.70;99.90;;;;;;6056674;23;20029;-82
2024/02/24 06:36:59;;;;;;;3.63;2.70;;;2.70;99.90;;;;;;6059525;23;20158;-82
2024/02/24 06:39:47;;;;;;;5.57;2.78;;;2.70;99.90;;;;;;6040105;23;20037;-79
2024/02/24 06:42:39;;;;;;;4.10;2.20;;;2.70;99.90;;;;;;6067632;23;20034;-79
2024/02/24 06:45:26;;;;;;;3.00;2.65;;;2.70;99.90;;;;;;6043117;23;20118;-80
2024/02/24 06:48:15;;;;;;;3.05;2.42;;;2.70;99.90;;;;;;6054682;23;20033;-82
2024/02/24 06:51:03;;;;;;;2.55;2.17;;;2.70;99.90;;;;;;6075776;23;20038;-79
2024/02/24 06:53:54;;;;;;;3.47;2.05;;;2.70;99.90;;;;;;6075440;23;20062;-79
2024/02/24 06:56:43;;;;;;;2.72;2.08;;;2.70;99.90;;;;;;6085295;23;20023;-80
2024/02/24 06:59:34;;;;;;;4.45;2.38;;;2.70;99.90;;;;;;6074991;23;20037;-76
2024/02/24 07:02:24;;;;;;;4.60;2.00;;;2.70;99.90;;;;;;6074235;23;20110;-80
2024/02/24 07:05:12;;;;;;;3.72;2.10;;;2.70;99.90;;;;;;6062143;23;20037;-81
2024/02/24 07:08:00;;;;;;;2.38;2.05;;;2.70;99.90;;;;;;6060399;23;20034;-82
2024/02/24 07:10:48;;;;;;;3.25;1.92;;;2.70;99.90;;;;;;6060079;23;20034;-81
2024/02/24 07:13:37;;;;;;;3.50;1.80;;;2.80;99.90;;;;;;6058455;23;20466;-79
2024/02/24 07:16:26;;;;;;;2.08;1.85;;;2.80;99.90;;;;;;6056470;23;20066;-79
2024/02/24 07:19:15;;;;;;;1.92;1.40;;;2.90;99.90;;;;;;6055244;23;20505;-79
2024/02/24 07:22:03;;;;;;;2.97;1.77;;;2.90;99.90;;;;;;6037124;23;20026;-77
2024/02/24 07:24:51;;;;;;;1.05;1.05;;;3.10;99.90;;;;;;6063308;23;20038;-79
2024/02/24 07:27:39;;;;;;;1.40;1.30;;;3.20;99.90;;;;;;6046484;23;20030;-81
2024/02/24 07:30:26;;;;;;;5.10;1.80;;;3.30;99.90;;;;;;6053140;23;20035;-79
2024/02/24 07:33:14;;;;;;;1.73;1.63;;;3.10;99.90;;;;;;6066719;23;20023;-82
2024/02/24 07:36:03;;;;;;;3.47;1.60;;;3.00;99.90;;;;;;6059898;23;20037;-79
2024/02/24 07:38:50;;;;;;;3.45;2.10;;;2.90;99.90;;;;;;6057999;23;20386;-80
2024/02/24 07:41:41;;;;;;;3.30;1.75;;;2.90;99.90;;;;;;6065064;23;20031;-81
2024/02/24 07:44:28;;;;;;;1.75;1.65;;;2.90;99.90;;;;;;6038598;23;20682;-80
2024/02/24 07:47:17;;;;;;;2.25;1.50;;;2.90;99.90;;;;;;6060209;23;20030;-82
2024/02/24 07:50:05;;;;;;;2.63;1.58;;;3.00;99.90;;;;;;6058169;23;20027;-77
2024/02/24 07:52:54;;;;;;;2.55;1.50;;;2.90;99.90;;;;;;6058363;23;20011;-75
2024/02/24 07:55:42;;;;;;;2.05;1.95;;;2.80;61.20;;;;;;6076384;23;20054;-78
2024/02/24 07:58:29;;;;;;;1.25;1.17;;;2.80;25.80;;;;;;6058554;23;20045;-81
2024/02/24 08:01:19;;;;;;;1.60;1.50;;;2.70;4.50;;;;;;6057697;23;20290;-79
2024/02/24 08:04:08;;;;;;;2.88;1.35;;;2.70;1.00;;;;;;6058342;23;20027;-80
2024/02/24 08:06:56;;;;;;;1.60;1.50;;;2.70;1.00;;;;;;6058172;23;20034;-81
2024/02/24 08:09:43;;;;;;;1.75;1.65;;;2.70;1.00;;;;;;6065342;23;20082;-80
2024/02/24 08:12:31;;;;;;;2.33;1.63;;;2.70;1.00;;;;;;6071583;23;20027;-80
2024/02/24 08:15:19;;;;;;;1.52;1.40;;;2.80;1.00;;;;;;6034280;23;20050;-79
2024/02/24 08:18:07;;;;;;;1.75;1.60;;;2.80;1.00;;;;;;6069764;23;20056;-81
2024/02/24 08:20:59;;;;;;;2.22;1.70;;;3.10;1.00;;;;;;6040078;23;20411;-81
2024/02/24 08:23:48;;;;;;;1.50;1.40;;;3.40;1.00;;;;;;6062309;23;20023;-79
2024/02/24 08:26:39;;;;;;;1.58;1.48;;;3.60;1.00;;;;;;6066035;23;20034;-81
2024/02/24 08:29:31;;;;;;;3.15;1.48;;;3.70;99.90;;;;;;6061733;23;20410;-80
2024/02/24 08:32:20;;;;;;;1.65;1.20;;;4.00;99.90;;;;;;6062352;23;20034;-80
2024/02/24 08:35:09;;;;;;;2.03;1.15;;;4.40;99.90;;;;;;6039523;23;20078;-80
2024/02/24 08:37:58;;;;;;;2.42;1.42;;;4.60;99.90;;;;;;6062740;23;20034;-79
2024/02/24 08:40:46;;;;;;;2.97;1.40;;;4.90;30.00;;;;;;6043202;23;20046;-78
2024/02/24 08:43:33;;;;;;;1.30;1.20;;;5.50;1.00;;;;;;6073313;23;20027;-80
2024/02/24 08:46:21;;;;;;;2.05;1.20;;;5.70;1.00;;;;;;6042311;23;20373;-82
2024/02/24 08:49:11;;;;;;;1.67;1.27;;;6.20;99.90;;;;;;6040188;23;20244;-80
2024/02/24 08:52:00;;;;;;;1.67;1.15;;;6.00;99.90;;;;;;6072737;23;20033;-82
2024/02/24 08:54:48;;;;;;;2.03;1.20;;;6.30;99.90;;;;;;6065537;23;20022;-76
2024/02/24 08:57:36;;;;;;;2.22;1.20;;;6.20;99.90;;;;;;6066404;23;20240;-78
2024/02/24 09:00:24;;;;;;;1.58;1.20;;;6.00;99.90;;;;;;6070033;23;20050;-82
2024/02/24 09:03:12;;;;;;;2.55;1.55;;;6.20;82.90;;;;;;6071495;23;20035;-81
2024/02/24 09:06:01;;;;;;;1.67;1.27;;;6.60;22.40;;;;;;6083465;23;20030;-80
2024/02/24 09:08:48;;;;;;;2.35;1.40;;;6.60;1.00;;;;;;6060590;23;20046;-78
2024/02/24 09:11:36;;;;;;;2.45;1.20;;;6.30;1.00;;;;;;6056909;23;20026;-80
2024/02/24 09:14:26;;;;;;;4.05;1.23;;;6.40;1.00;;;;;;6061012;23;20238;-83
2024/02/24 09:17:14;;;;;;;2.75;1.40;;;6.50;1.00;;;;;;6058923;23;20050;-81
2024/02/24 09:20:01;;;;;;;1.13;1.00;;;6.70;1.00;;;;;;6060324;23;20474;-81
2024/02/24 09:22:49;;;;;;;1.05;0.90;;;6.50;1.00;;;;;;6059622;23;20034;-78
2024/02/24 09:25:37;;;;;;;1.08;1.00;;;6.40;1.00;;;;;;6056457;23;20026;-81
2024/02/24 09:28:27;;;;;;;2.97;1.30;;;6.20;1.00;;;;;;6058867;23;20030;-81
2024/02/24 09:31:18;;;;;;;1.23;0.90;;;6.30;1.00;;;;;;6046719;23;20293;-77
2024/02/24 09:34:09;;;;;;;1.55;0.82;;;6.40;99.90;;;;;;6060552;23;20034;-79
2024/02/24 09:37:01;;;;;;;0.88;0.88;;;6.40;99.90;;;;;;6066577;23;20351;-75
2024/02/24 09:39:51;;;;;;;1.65;0.70;;;6.90;99.90;;;;;;6070211;23;20082;-82
2024/02/24 09:42:40;;;;;;;0.80;0.70;;;7.60;99.90;;;;;;6054509;23;20087;-77
2024/02/24 09:45:34;;;;;;;1.27;0.70;;;8.70;99.90;;;;;;6070977;23;20433;-80
2024/02/24 09:48:23;;;;;;;0.50;0.50;;;9.30;99.90;;;;;;6068530;23;20041;-82
2024/02/24 09:51:11;;;;;;;0.95;0.85;;;9.10;99.90;;;;;;6038671;23;20458;-80
2024/02/24 09:53:58;;;;;;;0.60;0.60;;;8.40;99.90;;;;;;6068828;23;20027;-81
2024/02/24 09:56:51;;;;;;;1.88;0.95;;;8.40;99.90;;;;;;6038854;23;20031;-81
2024/02/24 09:59:38;;;;;;;0.60;0.60;;;8.70;99.90;;;;;;6038501;23;20135;-80
2024/02/24 10:02:26;;;;;;;2.85;0.73;;;8.90;99.90;;;;;;6059810;23;20143;-81
2024/02/24 10:05:16;;;;;;;1.55;0.60;;;9.60;99.90;;;;;;6038944;23;20370;-81
2024/02/24 10:08:04;;;;;;;3.13;0.90;;;9.30;99.90;;;;;;6057862;23;20026;-84
2024/02/24 10:10:52;;;;;;;2.53;0.80;;;8.70;99.90;;;;;;6057133;23;20038;-81
2024/02/24 10:13:42;;;;;;;2.88;0.95;;;8.30;99.90;;;;;;6056940;23;20067;-80
2024/02/24 10:16:36;;;;;;;1.42;0.80;;;8.40;99.90;;;;;;6058298;23;20034;-81
2024/02/24 10:19:27;;;;;;;1.05;0.70;;;8.30;99.90;;;;;;6018283;23;20383;-83
2024/02/24 10:22:19;;;;;;;2.40;1.08;;;8.20;99.90;;;;;;6057360;23;20034;-83
2024/02/24 10:25:07;;;;;;;0.90;0.70;;;8.30;99.90;;;;;;6067282;23;20368;-78
2024/02/24 10:27:55;;;;;;;0.80;0.80;;;9.00;99.90;;;;;;6038827;23;20266;-81
2024/02/24 10:30:47;;;;;;;1.23;0.70;;;9.40;99.90;;;;;;6069061;23;20051;-77
2024/02/24 10:33:38;;;;;;;0.70;0.70;;;9.40;99.90;;;;;;6057291;23;20430;-80
2024/02/24 10:36:27;;;;;;;0.80;0.73;;;10.30;99.90;;;;;;6072439;23;20031;-75
2024/02/24 10:39:16;;;;;;;0.70;0.70;;;10.30;99.90;;;;;;6070440;23;20042;-80
2024/02/24 10:42:06;;;;;;;1.05;0.65;;;9.70;99.90;;;;;;6037909;23;20027;-80
2024/02/24 10:44:56;;;;;;;0.85;0.70;;;8.70;99.90;;;;;;6069455;23;20054;-82
2024/02/24 10:47:43;;;;;;;2.60;0.77;;;8.00;99.90;;;;;;6036678;23;20114;-81
2024/02/24 10:50:31;;;;;;;1.48;0.88;;;7.80;99.90;;;;;;6058884;23;20034;-78
2024/02/24 10:53:27;;;;;;;1.05;0.80;;;7.60;99.90;;;;;;6037218;23;20058;-81
2024/02/24 10:56:19;;;;;;;1.50;0.90;;;7.40;99.90;;;;;;6057862;23;20086;-80
2024/02/24 10:59:11;;;;;;;0.85;0.73;;;7.30;99.90;;;;;;6059145;23;20031;-80
2024/02/24 11:02:06;;;;;;;0.75;0.75;;;7.50;99.90;;;;;;6037722;23;20035;-78
2024/02/24 11:04:58;;;;;;;1.33;1.02;;;8.20;99.90;;;;;;6059654;23;20059;-82
2024/02/24 11:07:50;;;;;;;0.85;0.80;;;8.80;99.90;;;;;;6059526;23;20054;-81
2024/02/24 11:10:40;;;;;;;1.83;0.90;;;9.50;99.90;;;;;;6060160;23;20629;-80
2024/02/24 11:13:29;;;;;;;1.95;0.60;;;10.10;99.90;;;;;;6058951;23;20031;-81
2024/02/24 11:16:20;;;;;;;0.40;0.40;;;10.40;99.90;;;;;;6038379;23;20299;-78
2024/02/24 11:19:10;;;;;;;1.27;0.60;;;10.90;99.90;;;;;;6059520;23;20035;-80
2024/02/24 11:22:05;;;;;;;0.70;0.70;;;11.40;97.40;;;;;;6038344;23;20049;-80
2024/02/24 11:25:03;;;;;;;;;;;11.20;90.40;;;;;;6047586;23;20499;-81
2024/02/24 11:27:56;;;;;;;1.73;0.85;;;9.50;77.20;;;;;;6057443;23;20351;-78
2024/02/24 11:30:44;;;;;;;4.85;0.90;;;8.70;86.30;;;;;;6068966;23;20027;-78
2024/02/24 11:33:38;;;;;;;1.50;0.90;;;9.30;86.10;;;;;;6071557;23;20094;-81
2024/02/24 11:36:33;;;;;;;1.80;0.80;;;9.90;89.90;;;;;;6071237;23;20755;-82
2024/02/24 11:39:22;;;;;;;1.38;0.88;;;10.90;77.90;;;;;;6070353;23;20042;-81
2024/02/24 11:42:12;;;;;;;0.63;0.63;;;10.80;66.50;;;;;;6033564;23;20027;-81
2024/02/24 11:45:03;;;;;;;1.35;0.73;;;11.40;56.80;;;;;;6030608;23;20086;-81
2024/02/24 11:47:52;;;;;;;1.42;0.75;;;11.70;62.60;;;;;;6064874;23;20470;-78
2024/02/24 11:50:44;;;;;;;0.82;0.68;;;13.10;54.20;;;;;;6041069;23;20029;-81
2024/02/24 11:53:32;;;;;;;1.27;0.70;;;12.40;39.20;;;;;;6060933;23;20476;-85
2024/02/24 11:56:20;;;;;;;1.25;0.80;;;12.00;30.60;;;;;;6059377;23;20085;-81
2024/02/24 11:59:09;;;;;;;0.73;0.60;;;11.70;33.90;;;;;;6059645;23;20034;-81
2024/02/24 12:01:56;;;;;;;0.95;0.70;;;11.50;24.60;;;;;;6061150;23;20050;-81
2024/02/24 12:04:43;;;;;;;3.22;0.80;;;10.70;20.40;;;;;;6060184;23;20054;-83
2024/02/24 12:07:44;;;;;;;1.00;0.80;;;10.60;22.10;;;;;;6058860;23;20045;-80
2024/02/24 12:10:36;;;;;;;0.85;0.77;;;10.90;23.20;;;;;;6060659;23;20098;-80
2024/02/24 12:13:25;;;;;;;1.08;1.00;;;11.30;20.10;;;;;;6055573;23;20026;-80
2024/02/24 12:16:15;;;;;;;1.00;0.80;;;10.90;18.20;;;;;;6060447;23;20023;-81
2024/02/24 12:19:04;;;;;;;2.55;1.00;;;10.80;16.90;;;;;;6067373;23;20041;-80
2024/02/24 12:21:52;;;;;;;0.63;0.60;;;10.50;15.50;;;;;;6060713;23;20034;-81
2024/02/24 12:24:39;;;;;;;1.95;0.88;;;9.90;15.90;;;;;;6058004;23;20415;-81
2024/02/24 12:27:27;;;;;;;6.47;1.10;;;9.80;13.10;;;;;;6049212;23;20058;-82
2024/02/24 12:30:18;;;;;;;1.13;0.90;;;9.30;11.70;;;;;;6069333;23;20041;-80
2024/02/24 12:33:14;;;;;;;2.58;1.00;;;8.30;16.10;;;;;;6061445;23;20027;-81
2024/02/24 12:36:12;;;;;;;1.48;0.93;;;8.60;19.20;;;;;;6071657;23;20067;-79
2024/02/24 12:38:59;;;;;;;0.80;0.80;;;8.70;20.10;;;;;;6068175;23;20071;-81
2024/02/24 12:41:47;;;;;;;1.17;0.80;;;8.80;23.30;;;;;;6022127;23;20022;-83
2024/02/24 12:44:34;;;;;;;0.75;0.75;;;8.60;21.90;;;;;;6060062;23;20040;-79
2024/02/24 12:47:22;;;;;;;1.25;0.90;;;8.70;23.80;;;;;;6070361;23;20030;-78
2024/02/24 12:50:12;;;;;;;0.93;0.90;;;9.10;22.00;;;;;;6053373;23;20054;-78
2024/02/24 12:53:05;;;;;;;0.85;0.73;;;10.10;21.50;;;;;;6061136;23;20027;-82
2024/02/24 12:55:59;;;;;;;0.82;0.70;;;10.70;21.30;;;;;;6057486;23;20027;-81
2024/02/24 12:58:47;;;;;;;1.83;0.70;;;12.30;15.10;;;;;;6056146;23;20027;-81
2024/02/24 13:01:34;;;;;;;1.10;0.80;;;13.20;9.30;;;;;;6062006;23;20224;-81
2024/02/24 13:04:27;;;;;;;0.70;0.70;;;13.40;4.60;;;;;;6052770;23;20026;-77
2024/02/24 13:07:15;;;;;;;0.88;0.73;;;12.10;1.00;;;;;;6076632;23;20026;-78
2024/02/24 13:10:03;;;;;;;1.00;0.57;;;12.40;1.00;;;;;;6080822;23;20026;-77
2024/02/24 13:12:51;;;;;;;0.88;0.70;;;12.40;1.00;;;;;;6061470;23;20067;-77
2024/02/24 13:15:39;;;;;;;0.60;0.60;;;12.30;1.00;;;;;;6089655;23;20047;-75
2024/02/24 13:18:30;;;;;;;2.08;0.70;;;11.50;1.00;;;;;;6056828;23;20077;-76
2024/02/24 13:21:19;;;;;;;0.63;0.63;;;10.80;1.00;;;;;;6088499;23;20074;-77
2024/02/24 13:24:07;;;;;;;0.82;0.70;;;11.00;1.00;;;;;;6079486;23;20100;-80
2024/02/24 13:26:55;;;;;;;1.23;0.80;;;11.10;1.00;;;;;;6060996;23;20041;-78
2024/02/24 13:29:42;;;;;;;0.85;0.80;;;10.60;1.00;;;;;;6038355;23;20506;-81
2024/02/24 13:32:32;;;;;;;1.10;0.80;;;9.80;1.00;;;;;;6040018;23;20027;-80
2024/02/24 13:35:19;;;;;;;1.20;0.70;;;9.30;1.00;;;;;;6059742;23;20038;-79
2024/02/24 13:38:07;;;;;;;1.10;0.90;;;9.10;1.00;;;;;;6038162;23;20058;-79
2024/02/24 13:40:55;;;;;;;0.70;0.70;;;9.00;1.00;;;;;;6060216;23;20037;-82
2024/02/24 13:43:43;;;;;;;4.38;2.80;;;8.60;1.00;;;;;;6059540;23;20031;-81
2024/02/24 13:46:30;;;;;;;1.63;0.80;;;8.50;1.00;;;;;;6059096;23;20035;-80
2024/02/24 13:49:24;;;;;;;1.50;0.80;;;8.30;1.00;;;;;;6059509;23;20033;-82
2024/02/24 13:52:12;;;;;;;0.70;0.70;;;8.10;1.00;;;;;;6059603;23;20515;-82
2024/02/24 13:55:01;;;;;;;1.15;0.70;;;8.00;1.00;;;;;;6058019;23;20018;-80
2024/02/24 13:57:52;;;;;;;2.92;1.70;;;7.90;1.00;;;;;;6059071;23;20031;-81
2024/02/24 14:00:39;;;;;;;1.95;1.10;;;8.10;1.00;;;;;;6043834;23;20031;-81
2024/02/24 14:03:28;;;;;;;2.53;1.00;;;8.30;1.00;;;;;;6070377;23;20030;-81
2024/02/24 14:06:16;;;;;;;1.20;0.73;;;8.30;1.00;;;;;;6054037;23;20482;-81
2024/02/24 14:09:06;;;;;;;3.83;1.35;;;8.40;1.00;;;;;;6050968;23;20474;-81
2024/02/24 14:11:55;;;;;;;1.90;0.88;;;8.20;1.00;;;;;;6061766;23;20537;-80
2024/02/24 14:14:43;;;;;;;0.70;0.70;;;8.20;1.00;;;;;;6038283;23;20030;-82
2024/02/24 14:17:30;;;;;;;1.50;0.90;;;7.80;1.00;;;;;;6056392;23;20038;-82
2024/02/24 14:20:18;;;;;;;1.30;1.02;;;7.70;1.00;;;;;;6047177;23;20339;-79
2024/02/24 14:23:14;;;;;;;0.82;0.80;;;7.70;1.00;;;;;;6068118;23;20058;-82
2024/02/24 14:26:02;;;;;;;3.08;1.85;;;7.60;1.00;;;;;;6037657;23;20023;-79
2024/02/24 14:28:53;;;;;;;0.85;0.85;;;7.50;1.00;;;;;;6037627;23;20050;-80
2024/02/24 14:31:48;;;;;;;2.33;0.95;;;7.40;1.00;;;;;;6039671;23;20023;-80
2024/02/24 14:34:35;;;;;;;4.72;1.02;;;7.30;1.00;;;;;;6059423;23;20023;-79
2024/02/24 14:37:23;;;;;;;1.20;1.00;;;7.30;1.00;;;;;;6036903;23;20035;-81
2024/02/24 14:40:11;;;;;;;1.00;1.00;;;7.30;1.00;;;;;;6058919;23;20023;-79
2024/02/24 14:43:03;;;;;;;1.20;1.00;;;7.30;1.00;;;;;;6070054;23;20517;-81
2024/02/24 14:45:52;;;;;;;1.73;0.82;;;7.30;1.00;;;;;;6037642;23;20508;-79
2024/02/24 14:48:40;;;;;;;2.05;1.02;;;7.30;1.00;;;;;;6063680;23;20034;-80
2024/02/24 14:51:28;;;;;;;1.23;1.10;;;7.30;1.00;;;;;;6051986;23;20026;-81
2024/02/24 14:54:21;;;;;;;1.55;1.13;;;7.30;1.00;;;;;;6048332;23;20845;-83